Klemme, Iowa
Current Conditions -  °F | °C
As of 2:15 AM on Monday 26 Jan 2015 (Local Time) from KFXY Reporting Station
Overcast Overcast  
Wind Chill: 22°   Ceiling: 1400
Heat Index: 30°   Visibility: 10mi
Dew Point: 25°   Wind: 9mph
Humidity: 80%   Direction: 190°S
Pressure: 29.93"   Gusts: NA
Location:  43.01°N, 93.6°W
Report Text: KFXY 260815Z AUTO 19008KT 10SM OVC014 M01/M04 A2993 RMK AO2
Loading
Personal Weather Stations






























Interactive Weather Map New forecast layout! Learn more

10-Day Weather Forecast

Advertisements
Track Severe Weather on mobile